sensor_id;sensor_type;location;lat;lon;timestamp;P1;durP1;ratioP1;P2;durP2;ratioP2
15327;SDS011;7764;51.430;6.840;2022-12-13T00:00:37;47.67;;;23.93;;
15327;SDS011;7764;51.430;6.840;2022-12-13T00:03:05;47.73;;;23.47;;
15327;SDS011;7764;51.430;6.840;2022-12-13T00:05:33;45.73;;;22.70;;
15327;SDS011;7764;51.430;6.840;2022-12-13T00:08:00;52.30;;;24.63;;
15327;SDS011;7764;51.430;6.840;2022-12-13T00:10:27;46.07;;;23.00;;
15327;SDS011;7764;51.430;6.840;2022-12-13T00:12:54;44.70;;;23.97;;
15327;SDS011;7764;51.430;6.840;2022-12-13T00:15:21;45.50;;;24.00;;
15327;SDS011;7764;51.430;6.840;2022-12-13T00:17:49;49.10;;;24.80;;
15327;SDS011;7764;51.430;6.840;2022-12-13T00:20:16;45.60;;;22.80;;
15327;SDS011;7764;51.430;6.840;2022-12-13T00:22:42;50.47;;;24.70;;
15327;SDS011;7764;51.430;6.840;2022-12-13T00:25:09;44.67;;;23.30;;
15327;SDS011;7764;51.430;6.840;2022-12-13T00:27:36;45.87;;;23.40;;
15327;SDS011;7764;51.430;6.840;2022-12-13T00:30:04;46.83;;;23.53;;
15327;SDS011;7764;51.430;6.840;2022-12-13T00:32:31;44.23;;;22.53;;
15327;SDS011;7764;51.430;6.840;2022-12-13T00:34:59;44.63;;;24.07;;
15327;SDS011;7764;51.430;6.840;2022-12-13T00:37:26;46.70;;;23.33;;
15327;SDS011;7764;51.430;6.840;2022-12-13T00:39:53;46.77;;;22.73;;
15327;SDS011;7764;51.430;6.840;2022-12-13T00:42:20;44.43;;;22.97;;
15327;SDS011;7764;51.430;6.840;2022-12-13T00:44:46;42.53;;;22.80;;
15327;SDS011;7764;51.430;6.840;2022-12-13T00:47:14;44.40;;;22.73;;
15327;SDS011;7764;51.430;6.840;2022-12-13T00:49:42;47.63;;;22.00;;
15327;SDS011;7764;51.430;6.840;2022-12-13T00:52:11;47.27;;;22.83;;
15327;SDS011;7764;51.430;6.840;2022-12-13T00:54:37;41.47;;;21.43;;
15327;SDS011;7764;51.430;6.840;2022-12-13T00:57:04;48.77;;;23.57;;
15327;SDS011;7764;51.430;6.840;2022-12-13T00:59:31;45.13;;;22.43;;
15327;SDS011;7764;51.430;6.840;2022-12-13T01:01:58;44.10;;;22.90;;
15327;SDS011;7764;51.430;6.840;2022-12-13T01:04:25;43.83;;;22.80;;
15327;SDS011;7764;51.430;6.840;2022-12-13T01:06:52;44.23;;;22.00;;
15327;SDS011;7764;51.430;6.840;2022-12-13T01:09:21;43.77;;;23.03;;
15327;SDS011;7764;51.430;6.840;2022-12-13T01:11:54;43.33;;;22.80;;
15327;SDS011;7764;51.430;6.840;2022-12-13T01:14:22;45.23;;;22.60;;
15327;SDS011;7764;51.430;6.840;2022-12-13T01:16:49;41.33;;;21.70;;
15327;SDS011;7764;51.430;6.840;2022-12-13T01:19:19;42.43;;;22.40;;
15327;SDS011;7764;51.430;6.840;2022-12-13T01:21:46;44.10;;;21.30;;
15327;SDS011;7764;51.430;6.840;2022-12-13T01:24:13;42.17;;;21.80;;
15327;SDS011;7764;51.430;6.840;2022-12-13T01:26:45;42.60;;;22.47;;
15327;SDS011;7764;51.430;6.840;2022-12-13T01:29:12;77.00;;;35.87;;
15327;SDS011;7764;51.430;6.840;2022-12-13T01:31:39;45.60;;;23.57;;
15327;SDS011;7764;51.430;6.840;2022-12-13T01:34:06;42.67;;;22.63;;
15327;SDS011;7764;51.430;6.840;2022-12-13T01:36:37;42.43;;;22.27;;
15327;SDS011;7764;51.430;6.840;2022-12-13T01:39:04;46.07;;;22.87;;
15327;SDS011;7764;51.430;6.840;2022-12-13T01:41:33;45.63;;;23.00;;
15327;SDS011;7764;51.430;6.840;2022-12-13T01:44:03;46.70;;;23.27;;
15327;SDS011;7764;51.430;6.840;2022-12-13T01:46:32;44.00;;;22.33;;
15327;SDS011;7764;51.430;6.840;2022-12-13T01:49:02;43.73;;;22.67;;
15327;SDS011;7764;51.430;6.840;2022-12-13T01:51:33;41.80;;;23.07;;
15327;SDS011;7764;51.430;6.840;2022-12-13T01:54:02;46.83;;;23.20;;
15327;SDS011;7764;51.430;6.840;2022-12-13T01:56:34;47.17;;;25.13;;
15327;SDS011;7764;51.430;6.840;2022-12-13T01:59:05;45.23;;;24.43;;
15327;SDS011;7764;51.430;6.840;2022-12-13T02:01:33;48.07;;;24.47;;
15327;SDS011;7764;51.430;6.840;2022-12-13T02:04:00;50.23;;;24.70;;
15327;SDS011;7764;51.430;6.840;2022-12-13T02:06:28;46.07;;;24.70;;
15327;SDS011;7764;51.430;6.840;2022-12-13T02:08:59;49.37;;;25.33;;
15327;SDS011;7764;51.430;6.840;2022-12-13T02:11:27;44.77;;;23.80;;
15327;SDS011;7764;51.430;6.840;2022-12-13T02:13:54;44.93;;;23.80;;
15327;SDS011;7764;51.430;6.840;2022-12-13T02:16:26;44.37;;;23.87;;
15327;SDS011;7764;51.430;6.840;2022-12-13T02:19:17;46.47;;;23.50;;
15327;SDS011;7764;51.430;6.840;2022-12-13T02:22:21;44.43;;;22.47;;
15327;SDS011;7764;51.430;6.840;2022-12-13T02:25:14;44.07;;;21.70;;
15327;SDS011;7764;51.430;6.840;2022-12-13T02:28:05;44.93;;;22.23;;
15327;SDS011;7764;51.430;6.840;2022-12-13T02:30:43;45.43;;;22.63;;
15327;SDS011;7764;51.430;6.840;2022-12-13T02:33:18;43.00;;;22.40;;
15327;SDS011;7764;51.430;6.840;2022-12-13T02:35:52;40.93;;;21.00;;
15327;SDS011;7764;51.430;6.840;2022-12-13T02:38:28;40.40;;;20.27;;
15327;SDS011;7764;51.430;6.840;2022-12-13T02:41:04;44.73;;;21.70;;
15327;SDS011;7764;51.430;6.840;2022-12-13T02:43:39;41.03;;;21.57;;
15327;SDS011;7764;51.430;6.840;2022-12-13T02:46:12;46.57;;;22.13;;
15327;SDS011;7764;51.430;6.840;2022-12-13T02:48:42;41.27;;;21.97;;
15327;SDS011;7764;51.430;6.840;2022-12-13T02:51:10;44.47;;;22.77;;
15327;SDS011;7764;51.430;6.840;2022-12-13T02:53:38;43.77;;;22.67;;
15327;SDS011;7764;51.430;6.840;2022-12-13T02:56:06;40.63;;;21.67;;
15327;SDS011;7764;51.430;6.840;2022-12-13T02:58:34;42.33;;;22.67;;
15327;SDS011;7764;51.430;6.840;2022-12-13T03:01:07;44.20;;;22.70;;
15327;SDS011;7764;51.430;6.840;2022-12-13T03:03:52;43.60;;;22.47;;
15327;SDS011;7764;51.430;6.840;2022-12-13T03:06:28;41.43;;;22.13;;
15327;SDS011;7764;51.430;6.840;2022-12-13T03:09:13;41.67;;;21.47;;
15327;SDS011;7764;51.430;6.840;2022-12-13T03:15:02;46.90;;;22.23;;
15327;SDS011;7764;51.430;6.840;2022-12-13T03:17:41;48.77;;;23.23;;
15327;SDS011;7764;51.430;6.840;2022-12-13T03:20:14;46.60;;;24.47;;
15327;SDS011;7764;51.430;6.840;2022-12-13T03:22:42;45.77;;;23.43;;
15327;SDS011;7764;51.430;6.840;2022-12-13T03:25:09;44.83;;;22.87;;
15327;SDS011;7764;51.430;6.840;2022-12-13T03:27:36;43.83;;;21.70;;
15327;SDS011;7764;51.430;6.840;2022-12-13T03:30:04;44.27;;;22.10;;
15327;SDS011;7764;51.430;6.840;2022-12-13T03:32:31;43.37;;;21.47;;
15327;SDS011;7764;51.430;6.840;2022-12-13T03:34:59;42.50;;;22.50;;
15327;SDS011;7764;51.430;6.840;2022-12-13T03:37:26;44.53;;;22.23;;
15327;SDS011;7764;51.430;6.840;2022-12-13T03:39:53;44.97;;;22.60;;
15327;SDS011;7764;51.430;6.840;2022-12-13T03:42:21;46.30;;;22.47;;
15327;SDS011;7764;51.430;6.840;2022-12-13T03:44:47;42.17;;;22.47;;
15327;SDS011;7764;51.430;6.840;2022-12-13T03:47:14;49.40;;;22.67;;
15327;SDS011;7764;51.430;6.840;2022-12-13T03:49:41;43.20;;;20.83;;
15327;SDS011;7764;51.430;6.840;2022-12-13T03:52:10;46.53;;;22.73;;
15327;SDS011;7764;51.430;6.840;2022-12-13T03:54:37;44.60;;;21.70;;
15327;SDS011;7764;51.430;6.840;2022-12-13T03:57:04;42.07;;;21.43;;
15327;SDS011;7764;51.430;6.840;2022-12-13T03:59:31;38.10;;;20.20;;
15327;SDS011;7764;51.430;6.840;2022-12-13T04:01:58;43.43;;;20.73;;
15327;SDS011;7764;51.430;6.840;2022-12-13T04:04:24;38.27;;;20.60;;
15327;SDS011;7764;51.430;6.840;2022-12-13T04:06:51;41.03;;;20.23;;
15327;SDS011;7764;51.430;6.840;2022-12-13T04:09:19;43.63;;;21.43;;
15327;SDS011;7764;51.430;6.840;2022-12-13T04:11:47;47.27;;;23.53;;
15327;SDS011;7764;51.430;6.840;2022-12-13T04:14:31;46.97;;;23.73;;
15327;SDS011;7764;51.430;6.840;2022-12-13T04:16:58;43.70;;;21.93;;
15327;SDS011;7764;51.430;6.840;2022-12-13T04:19:25;42.90;;;21.37;;
15327;SDS011;7764;51.430;6.840;2022-12-13T04:21:52;40.73;;;20.87;;
15327;SDS011;7764;51.430;6.840;2022-12-13T04:24:20;39.30;;;20.53;;
15327;SDS011;7764;51.430;6.840;2022-12-13T04:26:47;38.17;;;20.27;;
15327;SDS011;7764;51.430;6.840;2022-12-13T04:29:14;40.83;;;20.13;;
15327;SDS011;7764;51.430;6.840;2022-12-13T04:31:41;39.73;;;19.97;;
15327;SDS011;7764;51.430;6.840;2022-12-13T04:34:07;39.13;;;19.90;;
15327;SDS011;7764;51.430;6.840;2022-12-13T04:36:34;37.83;;;19.53;;
15327;SDS011;7764;51.430;6.840;2022-12-13T04:39:02;38.50;;;20.20;;
15327;SDS011;7764;51.430;6.840;2022-12-13T04:41:35;41.70;;;20.67;;
15327;SDS011;7764;51.430;6.840;2022-12-13T04:44:03;43.27;;;21.43;;
15327;SDS011;7764;51.430;6.840;2022-12-13T04:46:31;42.27;;;20.57;;
15327;SDS011;7764;51.430;6.840;2022-12-13T04:48:58;41.60;;;20.30;;
15327;SDS011;7764;51.430;6.840;2022-12-13T04:51:26;38.60;;;19.80;;
15327;SDS011;7764;51.430;6.840;2022-12-13T04:53:53;40.27;;;19.67;;
15327;SDS011;7764;51.430;6.840;2022-12-13T04:56:19;39.70;;;19.77;;
15327;SDS011;7764;51.430;6.840;2022-12-13T04:58:48;42.17;;;20.30;;
15327;SDS011;7764;51.430;6.840;2022-12-13T05:01:15;38.37;;;19.53;;
15327;SDS011;7764;51.430;6.840;2022-12-13T05:03:42;39.50;;;20.13;;
15327;SDS011;7764;51.430;6.840;2022-12-13T05:06:09;38.07;;;19.73;;
15327;SDS011;7764;51.430;6.840;2022-12-13T05:08:37;39.93;;;19.93;;
15327;SDS011;7764;51.430;6.840;2022-12-13T05:11:05;41.13;;;20.27;;
15327;SDS011;7764;51.430;6.840;2022-12-13T05:13:33;39.60;;;20.30;;
15327;SDS011;7764;51.430;6.840;2022-12-13T05:16:03;73.07;;;37.23;;
15327;SDS011;7764;51.430;6.840;2022-12-13T05:18:31;40.13;;;20.83;;
15327;SDS011;7764;51.430;6.840;2022-12-13T05:21:00;43.17;;;20.37;;
15327;SDS011;7764;51.430;6.840;2022-12-13T05:23:28;41.67;;;20.33;;
15327;SDS011;7764;51.430;6.840;2022-12-13T05:25:55;38.37;;;19.93;;
15327;SDS011;7764;51.430;6.840;2022-12-13T05:28:23;38.07;;;20.40;;
15327;SDS011;7764;51.430;6.840;2022-12-13T05:30:52;40.10;;;19.77;;
15327;SDS011;7764;51.430;6.840;2022-12-13T05:33:21;41.33;;;20.87;;
15327;SDS011;7764;51.430;6.840;2022-12-13T05:35:48;45.63;;;21.83;;
15327;SDS011;7764;51.430;6.840;2022-12-13T05:38:15;40.73;;;20.37;;
15327;SDS011;7764;51.430;6.840;2022-12-13T05:40:42;37.70;;;20.10;;
15327;SDS011;7764;51.430;6.840;2022-12-13T05:43:09;42.63;;;20.63;;
15327;SDS011;7764;51.430;6.840;2022-12-13T05:45:37;39.67;;;21.23;;
15327;SDS011;7764;51.430;6.840;2022-12-13T05:48:04;39.17;;;20.67;;
15327;SDS011;7764;51.430;6.840;2022-12-13T05:50:32;47.47;;;22.23;;
15327;SDS011;7764;51.430;6.840;2022-12-13T05:52:59;42.03;;;21.27;;
15327;SDS011;7764;51.430;6.840;2022-12-13T05:55:28;40.83;;;20.97;;
15327;SDS011;7764;51.430;6.840;2022-12-13T05:57:56;42.23;;;21.23;;
15327;SDS011;7764;51.430;6.840;2022-12-13T06:00:23;39.53;;;20.90;;
15327;SDS011;7764;51.430;6.840;2022-12-13T06:02:50;40.50;;;21.20;;
15327;SDS011;7764;51.430;6.840;2022-12-13T06:05:17;41.90;;;20.77;;
15327;SDS011;7764;51.430;6.840;2022-12-13T06:07:47;40.13;;;20.43;;
15327;SDS011;7764;51.430;6.840;2022-12-13T06:10:15;40.57;;;20.07;;
15327;SDS011;7764;51.430;6.840;2022-12-13T06:12:41;44.37;;;22.60;;
15327;SDS011;7764;51.430;6.840;2022-12-13T06:15:09;39.53;;;21.50;;
15327;SDS011;7764;51.430;6.840;2022-12-13T06:17:36;43.77;;;21.03;;
15327;SDS011;7764;51.430;6.840;2022-12-13T06:20:03;45.27;;;21.67;;
15327;SDS011;7764;51.430;6.840;2022-12-13T06:22:32;42.47;;;22.10;;
15327;SDS011;7764;51.430;6.840;2022-12-13T06:25:01;43.47;;;21.57;;
15327;SDS011;7764;51.430;6.840;2022-12-13T06:27:29;39.93;;;21.67;;
15327;SDS011;7764;51.430;6.840;2022-12-13T06:29:56;47.37;;;25.30;;
15327;SDS011;7764;51.430;6.840;2022-12-13T06:32:22;43.10;;;20.97;;
15327;SDS011;7764;51.430;6.840;2022-12-13T06:34:49;42.00;;;21.07;;
15327;SDS011;7764;51.430;6.840;2022-12-13T06:37:16;45.03;;;22.30;;
15327;SDS011;7764;51.430;6.840;2022-12-13T06:39:43;41.67;;;21.10;;
15327;SDS011;7764;51.430;6.840;2022-12-13T06:42:14;44.83;;;21.33;;
15327;SDS011;7764;51.430;6.840;2022-12-13T06:44:42;38.90;;;20.87;;
15327;SDS011;7764;51.430;6.840;2022-12-13T06:47:09;41.37;;;21.20;;
15327;SDS011;7764;51.430;6.840;2022-12-13T06:49:38;43.53;;;22.67;;
15327;SDS011;7764;51.430;6.840;2022-12-13T06:52:07;38.83;;;20.17;;
15327;SDS011;7764;51.430;6.840;2022-12-13T06:54:34;42.97;;;21.23;;
15327;SDS011;7764;51.430;6.840;2022-12-13T06:57:00;39.33;;;19.80;;
15327;SDS011;7764;51.430;6.840;2022-12-13T06:59:29;41.30;;;20.57;;
15327;SDS011;7764;51.430;6.840;2022-12-13T07:01:55;45.40;;;21.63;;
15327;SDS011;7764;51.430;6.840;2022-12-13T07:04:23;44.30;;;20.87;;
15327;SDS011;7764;51.430;6.840;2022-12-13T07:06:50;45.03;;;21.00;;
15327;SDS011;7764;51.430;6.840;2022-12-13T07:09:17;40.97;;;20.73;;
15327;SDS011;7764;51.430;6.840;2022-12-13T07:11:44;41.03;;;20.83;;
15327;SDS011;7764;51.430;6.840;2022-12-13T07:14:11;41.27;;;21.07;;
15327;SDS011;7764;51.430;6.840;2022-12-13T07:16:39;43.37;;;21.87;;
15327;SDS011;7764;51.430;6.840;2022-12-13T07:19:06;40.67;;;20.30;;
15327;SDS011;7764;51.430;6.840;2022-12-13T07:21:33;42.93;;;21.17;;
15327;SDS011;7764;51.430;6.840;2022-12-13T07:24:02;42.90;;;21.47;;
15327;SDS011;7764;51.430;6.840;2022-12-13T07:26:29;47.70;;;22.63;;
15327;SDS011;7764;51.430;6.840;2022-12-13T07:28:57;39.97;;;20.70;;
15327;SDS011;7764;51.430;6.840;2022-12-13T07:31:24;45.97;;;22.47;;
15327;SDS011;7764;51.430;6.840;2022-12-13T07:33:52;72.60;;;36.10;;
15327;SDS011;7764;51.430;6.840;2022-12-13T07:36:20;46.20;;;22.73;;
15327;SDS011;7764;51.430;6.840;2022-12-13T07:38:51;59.37;;;30.43;;
15327;SDS011;7764;51.430;6.840;2022-12-13T07:41:21;42.30;;;20.80;;
15327;SDS011;7764;51.430;6.840;2022-12-13T07:43:48;43.60;;;21.33;;
15327;SDS011;7764;51.430;6.840;2022-12-13T07:46:15;42.07;;;21.03;;
15327;SDS011;7764;51.430;6.840;2022-12-13T07:48:42;39.17;;;20.47;;
15327;SDS011;7764;51.430;6.840;2022-12-13T07:51:10;37.33;;;20.40;;
15327;SDS011;7764;51.430;6.840;2022-12-13T07:53:38;42.85;;;24.27;;
15327;SDS011;7764;51.430;6.840;2022-12-13T07:56:07;40.40;;;21.00;;
15327;SDS011;7764;51.430;6.840;2022-12-13T07:58:35;42.87;;;21.40;;
15327;SDS011;7764;51.430;6.840;2022-12-13T08:01:03;38.47;;;20.43;;
15327;SDS011;7764;51.430;6.840;2022-12-13T08:03:31;39.27;;;19.97;;
15327;SDS011;7764;51.430;6.840;2022-12-13T08:05:59;42.10;;;20.03;;
15327;SDS011;7764;51.430;6.840;2022-12-13T08:08:29;38.57;;;19.60;;
15327;SDS011;7764;51.430;6.840;2022-12-13T08:10:59;39.97;;;19.97;;
15327;SDS011;7764;51.430;6.840;2022-12-13T08:13:26;38.93;;;20.93;;
15327;SDS011;7764;51.430;6.840;2022-12-13T08:15:56;38.83;;;21.37;;
15327;SDS011;7764;51.430;6.840;2022-12-13T08:18:24;41.07;;;21.07;;
15327;SDS011;7764;51.430;6.840;2022-12-13T08:20:51;50.30;;;23.70;;
15327;SDS011;7764;51.430;6.840;2022-12-13T08:23:17;45.43;;;22.37;;
15327;SDS011;7764;51.430;6.840;2022-12-13T08:25:50;44.77;;;21.23;;
15327;SDS011;7764;51.430;6.840;2022-12-13T08:28:17;48.43;;;23.33;;
15327;SDS011;7764;51.430;6.840;2022-12-13T08:30:44;45.07;;;23.03;;
15327;SDS011;7764;51.430;6.840;2022-12-13T08:33:11;46.57;;;22.63;;
15327;SDS011;7764;51.430;6.840;2022-12-13T08:35:38;46.63;;;22.77;;
15327;SDS011;7764;51.430;6.840;2022-12-13T08:38:05;41.93;;;21.97;;
15327;SDS011;7764;51.430;6.840;2022-12-13T08:40:32;47.97;;;24.00;;
15327;SDS011;7764;51.430;6.840;2022-12-13T08:43:00;48.80;;;25.00;;
15327;SDS011;7764;51.430;6.840;2022-12-13T08:45:27;52.57;;;26.13;;
15327;SDS011;7764;51.430;6.840;2022-12-13T08:47:56;58.60;;;30.93;;
15327;SDS011;7764;51.430;6.840;2022-12-13T08:50:23;48.13;;;24.27;;
15327;SDS011;7764;51.430;6.840;2022-12-13T08:52:51;51.33;;;25.30;;
15327;SDS011;7764;51.430;6.840;2022-12-13T08:55:18;59.60;;;26.57;;
15327;SDS011;7764;51.430;6.840;2022-12-13T08:57:45;46.37;;;23.67;;
15327;SDS011;7764;51.430;6.840;2022-12-13T09:00:14;50.87;;;25.37;;
15327;SDS011;7764;51.430;6.840;2022-12-13T09:02:43;51.00;;;26.07;;
15327;SDS011;7764;51.430;6.840;2022-12-13T09:05:10;47.00;;;24.97;;
15327;SDS011;7764;51.430;6.840;2022-12-13T09:07:38;46.70;;;25.13;;
15327;SDS011;7764;51.430;6.840;2022-12-13T09:10:06;49.50;;;24.97;;
15327;SDS011;7764;51.430;6.840;2022-12-13T09:12:34;47.23;;;25.37;;
15327;SDS011;7764;51.430;6.840;2022-12-13T09:15:05;46.73;;;25.87;;
15327;SDS011;7764;51.430;6.840;2022-12-13T09:17:34;48.73;;;24.57;;
15327;SDS011;7764;51.430;6.840;2022-12-13T09:20:01;49.00;;;25.07;;
15327;SDS011;7764;51.430;6.840;2022-12-13T09:22:28;51.20;;;25.83;;
15327;SDS011;7764;51.430;6.840;2022-12-13T09:24:55;50.67;;;25.53;;
15327;SDS011;7764;51.430;6.840;2022-12-13T09:27:21;47.40;;;24.83;;
15327;SDS011;7764;51.430;6.840;2022-12-13T09:29:48;49.83;;;23.47;;
15327;SDS011;7764;51.430;6.840;2022-12-13T09:32:15;43.03;;;23.50;;
15327;SDS011;7764;51.430;6.840;2022-12-13T09:34:44;44.17;;;23.27;;
15327;SDS011;7764;51.430;6.840;2022-12-13T09:37:12;46.40;;;26.80;;
15327;SDS011;7764;51.430;6.840;2022-12-13T09:39:38;44.53;;;23.87;;
15327;SDS011;7764;51.430;6.840;2022-12-13T09:42:08;46.03;;;23.97;;
15327;SDS011;7764;51.430;6.840;2022-12-13T09:44:47;49.87;;;25.33;;
15327;SDS011;7764;51.430;6.840;2022-12-13T09:47:22;41.23;;;22.90;;
15327;SDS011;7764;51.430;6.840;2022-12-13T09:49:57;43.77;;;23.30;;
15327;SDS011;7764;51.430;6.840;2022-12-13T09:52:26;39.43;;;21.80;;
15327;SDS011;7764;51.430;6.840;2022-12-13T09:54:59;42.57;;;21.10;;
15327;SDS011;7764;51.430;6.840;2022-12-13T09:57:27;39.13;;;22.33;;
15327;SDS011;7764;51.430;6.840;2022-12-13T09:59:58;39.30;;;21.37;;
15327;SDS011;7764;51.430;6.840;2022-12-13T10:02:27;36.53;;;19.80;;
15327;SDS011;7764;51.430;6.840;2022-12-13T10:04:57;38.50;;;20.03;;
15327;SDS011;7764;51.430;6.840;2022-12-13T10:07:40;37.73;;;19.37;;
15327;SDS011;7764;51.430;6.840;2022-12-13T10:10:08;36.87;;;19.33;;
15327;SDS011;7764;51.430;6.840;2022-12-13T10:12:39;40.33;;;20.30;;
15327;SDS011;7764;51.430;6.840;2022-12-13T10:15:09;38.47;;;21.17;;
15327;SDS011;7764;51.430;6.840;2022-12-13T10:17:38;39.30;;;19.27;;
15327;SDS011;7764;51.430;6.840;2022-12-13T10:20:14;37.37;;;21.03;;
15327;SDS011;7764;51.430;6.840;2022-12-13T10:22:43;33.83;;;18.30;;
15327;SDS011;7764;51.430;6.840;2022-12-13T10:25:10;37.50;;;18.57;;
15327;SDS011;7764;51.430;6.840;2022-12-13T10:27:37;36.70;;;19.33;;
15327;SDS011;7764;51.430;6.840;2022-12-13T10:30:07;40.13;;;20.00;;
15327;SDS011;7764;51.430;6.840;2022-12-13T10:32:46;34.47;;;18.87;;
15327;SDS011;7764;51.430;6.840;2022-12-13T10:35:24;42.80;;;22.10;;
15327;SDS011;7764;51.430;6.840;2022-12-13T10:37:55;35.23;;;19.27;;
15327;SDS011;7764;51.430;6.840;2022-12-13T10:40:26;36.97;;;19.10;;
15327;SDS011;7764;51.430;6.840;2022-12-13T10:43:06;33.93;;;17.90;;
15327;SDS011;7764;51.430;6.840;2022-12-13T10:45:37;32.30;;;17.80;;
15327;SDS011;7764;51.430;6.840;2022-12-13T10:48:04;32.00;;;17.37;;
15327;SDS011;7764;51.430;6.840;2022-12-13T10:50:33;34.40;;;18.00;;
15327;SDS011;7764;51.430;6.840;2022-12-13T10:53:01;35.60;;;18.23;;
15327;SDS011;7764;51.430;6.840;2022-12-13T10:55:29;30.93;;;17.53;;
15327;SDS011;7764;51.430;6.840;2022-12-13T10:57:58;32.50;;;19.07;;
15327;SDS011;7764;51.430;6.840;2022-12-13T11:00:32;33.20;;;18.13;;
15327;SDS011;7764;51.430;6.840;2022-12-13T11:03:03;32.77;;;17.47;;
15327;SDS011;7764;51.430;6.840;2022-12-13T11:05:30;34.13;;;17.33;;
15327;SDS011;7764;51.430;6.840;2022-12-13T11:08:15;31.13;;;18.00;;
15327;SDS011;7764;51.430;6.840;2022-12-13T11:10:52;30.43;;;17.40;;
15327;SDS011;7764;51.430;6.840;2022-12-13T11:13:31;36.93;;;19.13;;
15327;SDS011;7764;51.430;6.840;2022-12-13T11:16:02;31.63;;;16.73;;
15327;SDS011;7764;51.430;6.840;2022-12-13T11:18:38;33.70;;;19.30;;
15327;SDS011;7764;51.430;6.840;2022-12-13T11:21:12;36.90;;;18.60;;
15327;SDS011;7764;51.430;6.840;2022-12-13T11:23:52;31.57;;;15.60;;
15327;SDS011;7764;51.430;6.840;2022-12-13T11:26:25;30.83;;;16.40;;
15327;SDS011;7764;51.430;6.840;2022-12-13T11:28:56;28.37;;;16.17;;
15327;SDS011;7764;51.430;6.840;2022-12-13T11:31:34;27.00;;;14.90;;
15327;SDS011;7764;51.430;6.840;2022-12-13T11:34:05;25.57;;;15.07;;
15327;SDS011;7764;51.430;6.840;2022-12-13T11:36:54;25.27;;;14.77;;
15327;SDS011;7764;51.430;6.840;2022-12-13T11:39:27;26.50;;;15.73;;
15327;SDS011;7764;51.430;6.840;2022-12-13T11:41:58;27.10;;;15.27;;
15327;SDS011;7764;51.430;6.840;2022-12-13T11:44:33;24.80;;;14.83;;
15327;SDS011;7764;51.430;6.840;2022-12-13T11:47:09;27.77;;;14.43;;
15327;SDS011;7764;51.430;6.840;2022-12-13T11:49:42;24.13;;;14.07;;
15327;SDS011;7764;51.430;6.840;2022-12-13T11:52:14;28.23;;;13.73;;
15327;SDS011;7764;51.430;6.840;2022-12-13T11:54:49;25.57;;;13.60;;
15327;SDS011;7764;51.430;6.840;2022-12-13T11:57:29;24.80;;;13.53;;
15327;SDS011;7764;51.430;6.840;2022-12-13T12:00:16;24.07;;;13.53;;
15327;SDS011;7764;51.430;6.840;2022-12-13T12:02:54;24.43;;;13.37;;
15327;SDS011;7764;51.430;6.840;2022-12-13T12:05:29;25.03;;;13.43;;
15327;SDS011;7764;51.430;6.840;2022-12-13T12:08:03;26.33;;;13.60;;
15327;SDS011;7764;51.430;6.840;2022-12-13T12:10:39;24.97;;;13.40;;
15327;SDS011;7764;51.430;6.840;2022-12-13T12:13:10;34.63;;;15.20;;
15327;SDS011;7764;51.430;6.840;2022-12-13T12:15:45;28.37;;;13.93;;
15327;SDS011;7764;51.430;6.840;2022-12-13T12:18:24;26.90;;;13.53;;
15327;SDS011;7764;51.430;6.840;2022-12-13T12:20:57;21.37;;;12.70;;
15327;SDS011;7764;51.430;6.840;2022-12-13T12:23:39;31.20;;;14.37;;
15327;SDS011;7764;51.430;6.840;2022-12-13T12:26:23;29.63;;;16.03;;
15327;SDS011;7764;51.430;6.840;2022-12-13T12:29:01;27.27;;;12.53;;
15327;SDS011;7764;51.430;6.840;2022-12-13T12:31:42;21.67;;;12.00;;
15327;SDS011;7764;51.430;6.840;2022-12-13T12:34:19;27.63;;;13.70;;
15327;SDS011;7764;51.430;6.840;2022-12-13T12:36:56;22.90;;;13.30;;
15327;SDS011;7764;51.430;6.840;2022-12-13T12:39:51;28.17;;;15.77;;
15327;SDS011;7764;51.430;6.840;2022-12-13T12:42:38;30.33;;;16.90;;
15327;SDS011;7764;51.430;6.840;2022-12-13T12:45:21;24.60;;;12.53;;
15327;SDS011;7764;51.430;6.840;2022-12-13T12:47:59;24.07;;;12.07;;
15327;SDS011;7764;51.430;6.840;2022-12-13T12:50:40;21.10;;;12.10;;
15327;SDS011;7764;51.430;6.840;2022-12-13T12:53:22;20.10;;;11.37;;
15327;SDS011;7764;51.430;6.840;2022-12-13T12:56:13;21.17;;;10.83;;
15327;SDS011;7764;51.430;6.840;2022-12-13T12:58:50;19.53;;;11.10;;
15327;SDS011;7764;51.430;6.840;2022-12-13T13:01:28;23.47;;;11.87;;
15327;SDS011;7764;51.430;6.840;2022-12-13T13:04:03;19.63;;;11.27;;
15327;SDS011;7764;51.430;6.840;2022-12-13T13:06:36;21.27;;;10.83;;
15327;SDS011;7764;51.430;6.840;2022-12-13T13:09:06;30.73;;;11.33;;
15327;SDS011;7764;51.430;6.840;2022-12-13T13:11:38;21.60;;;11.60;;
15327;SDS011;7764;51.430;6.840;2022-12-13T13:14:27;21.03;;;11.03;;
15327;SDS011;7764;51.430;6.840;2022-12-13T13:16:56;24.97;;;12.30;;
15327;SDS011;7764;51.430;6.840;2022-12-13T13:19:43;28.23;;;13.93;;
15327;SDS011;7764;51.430;6.840;2022-12-13T13:22:30;30.73;;;12.60;;
15327;SDS011;7764;51.430;6.840;2022-12-13T13:28:03;19.63;;;9.80;;
15327;SDS011;7764;51.430;6.840;2022-12-13T13:30:32;27.17;;;9.83;;
15327;SDS011;7764;51.430;6.840;2022-12-13T13:33:00;18.97;;;10.30;;
15327;SDS011;7764;51.430;6.840;2022-12-13T13:38:27;19.90;;;9.93;;
15327;SDS011;7764;51.430;6.840;2022-12-13T13:41:37;21.77;;;10.30;;
15327;SDS011;7764;51.430;6.840;2022-12-13T13:47:34;25.20;;;11.17;;
15327;SDS011;7764;51.430;6.840;2022-12-13T13:53:24;19.67;;;9.60;;
15327;SDS011;7764;51.430;6.840;2022-12-13T13:56:34;20.97;;;9.73;;
15327;SDS011;7764;51.430;6.840;2022-12-13T13:59:19;27.33;;;11.00;;
15327;SDS011;7764;51.430;6.840;2022-12-13T14:02:26;22.97;;;9.63;;
15327;SDS011;7764;51.430;6.840;2022-12-13T14:05:23;29.87;;;12.20;;
15327;SDS011;7764;51.430;6.840;2022-12-13T14:08:24;24.43;;;10.63;;
15327;SDS011;7764;51.430;6.840;2022-12-13T14:20:45;43.67;;;15.80;;
15327;SDS011;7764;51.430;6.840;2022-12-13T14:23:30;44.67;;;18.40;;
15327;SDS011;7764;51.430;6.840;2022-12-13T14:26:29;34.47;;;18.40;;
15327;SDS011;7764;51.430;6.840;2022-12-13T14:29:14;47.27;;;23.23;;
15327;SDS011;7764;51.430;6.840;2022-12-13T14:31:44;42.93;;;22.17;;
15327;SDS011;7764;51.430;6.840;2022-12-13T14:34:18;42.63;;;23.67;;
15327;SDS011;7764;51.430;6.840;2022-12-13T14:36:56;40.23;;;21.83;;
15327;SDS011;7764;51.430;6.840;2022-12-13T14:39:25;38.67;;;18.87;;
15327;SDS011;7764;51.430;6.840;2022-12-13T14:41:54;38.97;;;19.30;;
15327;SDS011;7764;51.430;6.840;2022-12-13T14:44:24;36.67;;;19.10;;
15327;SDS011;7764;51.430;6.840;2022-12-13T14:46:59;36.30;;;18.63;;
15327;SDS011;7764;51.430;6.840;2022-12-13T14:49:28;36.97;;;18.97;;
15327;SDS011;7764;51.430;6.840;2022-12-13T14:52:00;38.47;;;19.03;;
15327;SDS011;7764;51.430;6.840;2022-12-13T14:54:36;41.77;;;18.87;;
15327;SDS011;7764;51.430;6.840;2022-12-13T14:57:12;38.40;;;20.63;;
15327;SDS011;7764;51.430;6.840;2022-12-13T14:59:43;41.67;;;19.83;;
15327;SDS011;7764;51.430;6.840;2022-12-13T15:02:13;40.90;;;20.00;;
15327;SDS011;7764;51.430;6.840;2022-12-13T15:04:41;44.13;;;21.60;;
15327;SDS011;7764;51.430;6.840;2022-12-13T15:07:13;36.33;;;21.27;;
15327;SDS011;7764;51.430;6.840;2022-12-13T15:09:52;42.70;;;19.10;;
15327;SDS011;7764;51.430;6.840;2022-12-13T15:12:23;37.17;;;20.13;;
15327;SDS011;7764;51.430;6.840;2022-12-13T15:14:56;36.60;;;18.87;;
15327;SDS011;7764;51.430;6.840;2022-12-13T15:17:28;30.90;;;17.60;;
15327;SDS011;7764;51.430;6.840;2022-12-13T15:19:56;32.20;;;17.17;;
15327;SDS011;7764;51.430;6.840;2022-12-13T15:22:26;33.43;;;17.37;;
15327;SDS011;7764;51.430;6.840;2022-12-13T15:24:54;30.80;;;17.03;;